Håll muspekaren över respektive flygplats för att se aktuella METAR och TAF.
Informationen kommer från Aviation Weather Center och vi tar inget ansvar för ev fel.

Äldsta observationstid på hämtad data är: 2023-02-02 12:50:00 (metar) och 2023-02-02 05:00:00 (taf)

Redigera flygplats

 

Masterfil

ändringar
METAR:
TAF:

I=ILS ((min200ft)/550m), L=LOC(min250ft/800m), V=VOR(min300ft/800m), N=NDB(min300ft/800m), G=GPS, C=CIRC(min500ft/1600m),
Takeoff 500m, rwy lgt 250m, ctr lgt 200m, multi RVR 150m   RWY


SWEDEN

AirportMETARTAF
Arvidsjaur
I12-550/200
I30-550/200
ESNX 021220Z 29010KT CAVOK M08/M11 Q1008 TAF ESNX 021130Z 0212/0221 29008KT CAVOK
Borlänge
I32-550/200
R14-800/250
ESSD 021220Z 29006KT CAVOK M03/M08 Q1012 TAF ESSD 021130Z 0212/0216 28006KT CAVOK
Bromma
I12-550/200
I30-750/200
ESSB 021220Z 32006KT CAVOK M03/M07 Q1012 TAF ESSB 021130Z 0212/0221 32009KT 9999 SCT013 BKN045
Gällivare
I30-550/223
R12-1300/250
ESNG 021220Z AUTO 32005KT 9999 NCD M08/M12 Q1009 TAF ESNG 021130Z 0212/0221 32005KT CAVOK
Hagfors
I18-550/200
R36-1500/360
ESOH 021220Z AUTO VRB02KT 9999 NCD M04/M09 Q1014
Halmstad
I19-550/200
R01-1100/330
ESMT 021220Z 35005KT 320V020 CAVOK 01/M03 Q1016 TAF ESMT 021102Z 0212/0221 33005KT 9999 SCT025 BECMG 0217/0219 VRB03KT
Hemavan
I33-1500/609
L15-5000/1567
ESUT 021220Z AUTO 00000KT 5000 BR SCT003/// M26/M28 Q1010
Jönköping
I19-550/200
I01-550/200
ESGJ 021220Z 32007KT 290V360 9999 FEW018 M01/M04 Q1014 TAF ESGJ 021130Z 0212/0221 34010KT 9999 SCT011 BECMG 0214/0216 28005KT
Kalmar
I16-550/200
R34-1400/300
ESMQ 021220Z 33013KT CAVOK 02/M04 Q1012 TAF ESMQ 021130Z 0212/0221 34010KT CAVOK BECMG 0216/0218 28005KT
Karlsborg
06/24
ESIA 021220Z 29007KT 260V320 CAVOK M03/M06 Q1014 TAF ESIA 021130Z 0212/0215 33006KT CAVOK RMK MIL
Karlstad
I03-550/200
I21-550/200
ESOK 021220Z 30007KT CAVOK M03/M08 Q1014 TAF ESOK 021130Z 0212/0216 33005KT CAVOK
Kiruna
I21-550/200
R03-900/341
ESNQ 021220Z 21002KT CAVOK M14/M16 Q1008 TAF ESNQ 021130Z 0212/0221 24002KT CAVOK
Kramfors
I35-550/200
L17-1500/605
ESNK 021220Z 36006KT CAVOK M03/M06 Q1012 TAF ESNK 021130Z 0212/0218 36004KT CAVOK
Kristianstad
I19-550/200
R01-1300/255
ESMK 021220Z 31010KT CAVOK 02/M03 Q1015 TAF ESMK 021102Z 0212/0220 33009KT 9999 SCT020
Landvetter
I03-550/200
I21-550/200
ESGG 021220Z VRB03KT CAVOK M01/M06 Q1015 TAF ESGG 021130Z 0212/0312 35007KT CAVOK BECMG 0301/0303 13010KT 4000 -SN BKN010 TEMPO 0303/0309 0500 SN VV004 BECMG 0309/0311 07008KT 9999 NSW SCT010
Linköping ESCF 021220Z 28008KT CAVOK M04/M06 Q1014 TAF ESCF 021130Z 0212/0221 28008KT CAVOK RMK MIL
Linköping
I11-550/200
I29-750/200
ESSL 021220Z 29009KT 260V320 CAVOK M03/M07 Q1014 TAF ESSL 021130Z 0212/0218 30007KT CAVOK
Ljungbyhed
29/11
ESTL 021220Z AUTO 31012KT 9999 NCD 02/M03 Q1016
Luleå
I14-550/200
I32-550/200
ESPA 021220Z 34008KT CAVOK M07/M08 Q1009 TAF ESPA 021135Z 0212/0221 33012KT CAVOK RMK MIL
Lycksele
I14-550/216
L32-1500/551
ESNL 021220Z AUTO 31004KT 9999 FEW054/// M08/M10 Q1010
Mora
I16-550/200
R34-800/254
ESKM 021220Z AUTO 00000KT 9999 NCD M05/M08 Q1013
Norrköping
I09-750/200
I27-550/200
ESSP 021220Z 29010KT 9999 FEW012 M04/M06 Q1014 TAF ESSP 021130Z 0212/0221 29008KT CAVOK
Pajala
I11-550/200
R29-800/250
ESUP 021220Z AUTO 29004KT 9999 NCD ///// Q1009
Ronneby
I19-550/200
I01-550/200
ESDF 021220Z 33008KT 290V010 9999 FEW020 01/M02 Q1013 TAF ESDF 021130Z 0212/0221 33007KT 9999 FEW020 RMK MIL
Skavsta
I26-550/200
L08-1400/386
ESKN 021220Z 30009KT 280V340 CAVOK M02/M06 Q1012 TAF ESKN 021130Z 0212/0312 33009KT 9999 SCT013 BKN025
Skellefteå
I28-550/200
R10-750/250
ESNS 021220Z 31006KT 280V340 9999 SCT020 BKN100 M04/M07 Q1009 TAF ESNS 021130Z 0212/0221 29006KT 9999 SCT045
Stockholm-Arlanda
I01LR-550/200
I19LR-550/200
L08-1400/392
I26-550/200
ESSA 021220Z 31006KT 9999 SCT016 M04/M08 Q1011 NOSIG TAF ESSA 021130Z 0212/0312 32009KT 9999 BKN030 PROB40 0212/0213 BKN012
Sturup
I17-550/200
I35-550/200
ESMS 021220Z 32016KT CAVOK 03/M04 Q1015 TAF ESMS 021102Z 0212/0312 31013KT 9999 SCT020 BECMG 0217/0219 VRB03KT BECMG 0302/0304 18012KT 4000 -RADZ BR BKN008 TEMPO 0304/0307 18015G25KT 1500 RASN BKN002 BECMG 0307/0309 30020KT 6000 NSW BKN012 TEMPO 0309/0312 31025G38KT 4000 RADZ BKN005
Sundsvall
I16-1200/200
I34-550/200
ESNN 021220Z AUTO VRB02KT 9999 NCD M04/M10 Q1012 TAF ESNN 021130Z 0212/0221 31006KT CAVOK
Sveg
I09-750/200
R27-1300/250
ESND 021220Z AUTO 26003KT 9999 -SN FEW007/// SCT023/// OVC031/// M12/M13 Q1011
Sälen
I15-550/200
I33-550/200
ESKS 021220Z 12002KT 9999 FEW026 M07/M10 Q1011 TAF ESKS 021130Z 0212/0215 VRB02KT CAVOK
Säve
R19-1500/610
01
ESGP 021220Z VRB03KT CAVOK 01/M06 Q1016 TAF ESGP 021130Z 0212/0221 VRB03KT CAVOK
Såtenäs
I19-550/200
I01-550/200
ESIB 021220Z 32003KT 270V360 CAVOK M01/M05 Q1015 TAF ESIB 021130Z 0212/0221 30005KT CAVOK RMK MIL
Torsby
L16-1500/480
L34-1500/416
ESST 021220Z AUTO 00000KT 9999 NCD M04/M09 Q1015
Trollhättan
I33-550/200
R15-900/284
ESGT 021220Z VRB01KT CAVOK M01/M07 Q1016 TAF ESGT 021130Z 0212/0221 33004KT CAVOK
Umeå
I14-550/200
I32-750/200
ESNU 021220Z 32011KT 9999 BKN030 M05/M09 Q1009 TAF ESNU 021130Z 0212/0221 29004KT CAVOK
Vilhelmina
I28-550/200
R10-1000/308
ESNV 021220Z AUTO 00000KT 7000 NCD M15/M17 Q1010
Visby
I21-550/200
R03-800/250
ESSV 021220Z 35014KT 9999 BKN013 M00/M02 Q1010 TAF ESSV 021130Z 0212/0221 35016KT 9999 SCT012 BKN017 TEMPO 0212/0213 4000 SN TEMPO 0212/0215 BKN012
Västerås
I19-550/200
R01-1400/343
ESOW 021220Z 30004KT 260V340 CAVOK M02/M09 Q1013 TAF ESOW 021130Z 0212/0216 32006KT CAVOK
Växjö
I19-550/200
R01-800/250
ESMX 021220Z 33008KT 9999 FEW018 00/M05 Q1013 TAF ESMX 021130Z 0212/0221 34010KT 9999 FEW025 BECMG 0215/0217 VRB02KT
Ängelholm
I14-550/200
R32-1000/310
ESTA 021220Z 31011KT CAVOK 01/M03 Q1016 TAF ESTA 021102Z 0212/0221 33010KT 9999 SCT025 BECMG 0217/0219 VRB03KT
Örebro
I01-550/200
I19-550/200
ESOE 021220Z AUTO 23005KT 9999 NCD M02/M06 Q1014 TAF ESOE 021130Z 0212/0221 27004KT CAVOK
Örnsköldsvik
I12-550/200
L30-800/254
ESNO 021220Z AUTO 33008KT 9999 BKN070/// M04/M07 Q1009 TAF ESNO 021130Z 0212/0221 34008KT CAVOK
Östersund
I12-550/200
R30-1500/420
ESNZ 021220Z AUTO 00000KT 9999 FEW010/// OVC015/// M09/M09 Q1010

NORDIC

AirportMETARTAF
Alta
I11-1500/389
ENAT 021220Z 17004KT 150V220 9999 SCT029 M08/M09 Q1011 RMK WIND 700FT 19008KT TAF ENAT 021100Z 0212/0221 19003KT 9999 SCT025
Andoya
L14-800/324
R32-750/250
V21-1400/343
ENAN 021220Z 18009KT 9999 FEW010 M05/M06 Q1010 TAF ENAN 0212/0312 19008KT 9999 FEW010
Aro
I07-1500/425
L25-1500/1180
ENML 021220Z 05005KT 0350 R07/0700N FZFG VV002 M01/M02 Q1014 TAF AMD ENML 021214Z 0212/0221 07005KT 9999 SCT006 PROB40 0212/0215 0400 FZFG VV002
Banak
I34-600/277
L16-750/305
ENNA 021220Z VRB03KT CAVOK M12/M14 Q1010 RMK WIND 1800FT 25012KT TAF ENNA 0212/0312 18005KT 9999 SCT015 TEMPO 0212/0312 FEW020CB
Bardufors
I28-1300/440
L10-1500/1067
ENDU 021220Z 00000KT 9999 2500SW BCFG FEW000 M19/M21 Q1011 TEMPO 1200 PRFG RMK WIND 1100FT 17004KT WIND 2200FT 12002KT TAF ENDU 0212/0312 VRB03KT 9999 FEW005 TEMPO 0212/0220 1200 PRFG PROB30 TEMPO 0220/0312 1200 PRFG
Batsfjord
L21-1500/461
R03-1500/630
ENBS 021220Z VRB05KT 6000 -SHSN FEW008 SCT013 BKN020 M04/M06 Q1007 TAF ENBS 021100Z 0212/0221 21003KT 9999 FEW020 SCT040 TEMPO 0212/0221 27010KT 2000 SHSN VV012 TEMPO 0212/0221 FEW010CB
Bergen
I17-550/200
I35-750/210
ENBR 021150Z 11007KT CAVOK 01/M02 Q1014 NOSIG RMK WIND 1200FT 13015KT TAF ENBR 0212/0312 13008KT 9999 FEW030 BKN150 BECMG 0219/0221 15015G25KT -SNRA BKN014 TEMPO 0219/0302 2000 SNRA VV004 BECMG 0302/0304 28020G30KT TEMPO 0302/0310 4000 SHRA BKN014CB
Berlevag
L24-1500/591
R06-1500/634
ENBV 021220Z 24004KT 4000 -SHSN VV009 M03/M04 Q1009 TAF ENBV 021100Z 0212/0221 23008KT 9999 FEW030 SCT050 TEMPO 0212/0221 2000 SHSN VV008 TEMPO 0212/0221 FEW015CB
Billund
I09-550/200
I27-550/200
EKBI 021220Z AUTO 27002KT 9999 NCD 05/00 Q1018 TAF EKBI 021104Z 0212/0312 26005KT 9999 SCT020 BECMG 0216/0218 18010KT BECMG 0219/0221 BKN012 TEMPO 0221/0306 2000 RADZ BKN002 BECMG 0304/0306 29020KT TEMPO 0306/0308 30025G40KT BECMG 0306/0308 BKN018 TEMPO 0308/0312 30025G40KT SHRA FEW015TCU
Björneborg
I30-550/200
R12-1100/263
EFPO 021220Z AUTO 34006KT 9999 OVC012 M03/M05 Q1009 TAF EFPO 021134Z 0212/0221 32005KT 9999 SCT012 BKN015 TEMPO 0212/0221 BKN012
Bodö
I07-600/268
I25-800/340
ENBO 021220Z 10014KT CAVOK M03/M07 Q1010 NOSIG TAF ENBO 0212/0312 10018KT 9999 FEW030
Bornholm
I11-750/200
I29-550/200
EKRN 021220Z AUTO 34009KT 300V040 9999 SCT019/// 02/M02 Q1015 TAF EKRN 021113Z 0212/0221 33015KT 9999 BKN020
Bronoysund
R03-1100/316
21
ENBN 021220Z 09005KT 9999 FEW011 BKN048 00/M02 Q1011 TAF ENBN 021100Z 0212/0221 17008KT 9999 FEW008 BKN020 TEMPO 0212/0219 0800 SHSNRA VV004 TEMPO 0212/0219 FEW005 SCT012CB
Enontekis
I21-550/200
R03-1000/250
EFET 021220Z AUTO 23002KT CAVOK M17/M18 Q1008
Esbjerg
I08-550/200
I26-550/200
EKEB 021220Z AUTO 31005KT 290V350 9999 SCT022/// 07/02 Q1018 TAF EKEB 021106Z 0212/0221 28008KT 9999 SCT020 BECMG 0219/0221 18010KT 4000 RADZ BR BKN012
Evenes
I17-800/340
R35-1500/779
ENEV 021220Z VRB02KT CAVOK M08/M09 Q1011 RMK WIND 1400FT 17006KT TAF ENEV 0212/0312 VRB03KT CAVOK
Faroar
L12-2500/556
I30-1500/435
EKVG 021220Z AUTO 12026KT 9999 -RA OVC012/// 04/02 Q1000 RMK OVC010/// WIND SKEID 12041KT TAF EKVG 021107Z 0212/0221 12024G37KT 4500 RADZ OVC008 BECMG 0216/0218 23018G28KT 9999 SHRA BKN012CB BECMG 0218/0220 28028G40KT 4500 RADZ OVC007
Floro
L07-1500/413
R25-2500/588
ENFL 021220Z 11010KT CAVOK 01/M03 Q1013 TAF ENFL 021100Z 0212/0221 10012KT CAVOK
Förde
L07-1500/471
L25-1500/1015
ENBL 021220Z 32003KT CAVOK M03/M05 Q1012
Halli
I26-750/200
R08-1000/368
EFHA 021220Z 32008KT 300V360 9999 -SN BKN007 M03/M05 Q1005 TAF EFHA 021127Z 0212/0215 31006KT 9999 FEW005 BKN030 TEMPO 0212/0215 BKN005 OVC025
Hammerfest
L04-1500/798
L22-1500/929
ENHF 021220Z 22003KT 190V280 9999 FEW011 BKN022 M03/M04 Q1009 RMK WIND 1254FT 28007KT TAF ENHF 021100Z 0212/0221 VRB02KT 9999 FEW015 SCT030 PROB40 TEMPO 0212/0221 2000 SHSN BKN008 FEW015CB
Haugesund
I13-750/200
R31-800/231
ENHD 021220Z 12013KT 9999 SCT023 03/M01 Q1014 TAF ENHD 021100Z 0212/0221 12012KT 9999 FEW030 BKN120 BECMG 0218/0220 15022G35KT 4000 RA SCT004 BKN010 TEMPO 0218/0221 2000 SNRA VV004
Haukasen
I24-1500/1017
L06-5000/1274
ENSG 021220Z VRB02KT 0900 FZFG FEW/// SCT002 SCT013 M05/M06 Q1013 RMK WIND 3806FT 33003KT
Helsinki
I04/I15/I22/all 550/200
R33-1000/319
EFHK 021220Z 34008KT 9999 SCT049 M01/M05 Q1005 NOSIG TAF EFHK 021127Z 0212/0312 33009KT 9999 FEW012 BKN049 PROB30 TEMPO 0218/0224 BKN010
Honningsvåg
08/26 1500/1184
ENHV 021220Z 23006KT 9999 -SN FEW008 BKN042 M02/M05 Q1009 TAF ENHV 021100Z 0212/0221 22005KT 9999 FEW030 SCT050 TEMPO 0212/0221 2000 SHSN VV012 TEMPO 0212/0221 FEW015CB PROB40 0214/0221 02010KT
Hovden
L06-1600/3187
ENOV 021220Z 00000KT CAVOK M04/M05 Q1013 RMK WIND RWY24 00000KT WIND 2090FT 14013KT TAF ENOV 021100Z 0212/0221 VRB03KT CAVOK
Hoybuktmoen
I23-550/250
R05-1500/740
ENKR 021220Z 32009KT 9999 FEW044 M06/M08 Q1008 RMK WIND 731FT 31009KT TAF ENKR 021100Z 0212/0221 28008KT 9999 FEW030
Ivalo
I22-550/200
R04-800/340
EFIV 021220Z VRB01KT CAVOK M13/M14 Q1008 TAF EFIV 021139Z 0212/0221 VRB02KT CAVOK
Joensuu
I28-550/200
R10-1000/306
EFJO 021220Z AUTO 34003KT 300V360 CAVOK M05/M06 Q1004 TAF EFJO 021124Z 0212/0218 33003KT CAVOK TEMPO 0212/0218 BKN012
Jyvaskyla
I30-750/200
R12-1200/401
EFJY 021220Z 31006KT 9999 -SN BKN012 M03/M05 Q1005 TAF EFJY 021127Z 0212/0312 31006KT 9999 SCT008 BKN032 TEMPO 0212/0215 5000 -SN BKN008 PROB30 0212/0215 -FZDZSN TEMPO 0215/0218 BKN005 TEMPO 0218/0309 BKN010
Kajaani
I07-550/200
R25-1100/335
EFKI 021220Z AUTO 26004KT 7000 -SN OVC010 M05/M06 Q1004 TAF EFKI 021134Z 0212/0218 21003KT 8000 -SN BKN012 TEMPO 0212/0218 3000 BKN006
Karup
I09R-550/200
I27L-550/200
EKKA 021220Z AUTO 22004KT 9999 NCD 05/M00 Q1017 NOSIG TAF EKKA 021107Z 0212/0312 24005KT 9999 SCT030 BECMG 0219/0222 17012KT 5000 -RA BKN010 TEMPO 0222/0305 18013G23KT 2000 RADZ BR BKN003 FM030500 28018G28KT 9999 BKN020 TEMPO 0306/0312 30022G40KT
Kastrup
I04L-550/214
I04R-550/200
I12-550/207
I22LR-550/200
I30-550/206
EKCH 021220Z AUTO 31010G20KT 270V350 9999 FEW025/// 04/M02 Q1017 NOSIG TAF EKCH 021104Z 0212/0312 33015KT 9999 SCT025 BECMG 0217/0219 VRB03KT BECMG 0300/0302 18015KT 4000 -RADZ BR BKN010 TEMPO 0302/0306 18018G30KT 2000 RASN BKN004 BECMG 0306/0308 29020KT 6000 NSW BKN015 TEMPO 0308/0312 30025G38KT 4000 RADZ BKN008
Kemi
I18-750/200
R36-750/256
EFKE 021220Z AUTO 01010KT 9999 BKN015 M05/M07 Q1007 TAF EFKE 021139Z 0212/0221 36010KT CAVOK
Kittila
I34-550/214
L16-1500/477
EFKT 021220Z 32007KT CAVOK M10/M11 Q1008 TAF EFKT 021139Z 0212/0221 33004KT CAVOK
Kristiansand
I03-550/200
I21-550/200
ENCN 021220Z 06003KT CAVOK 01/M02 Q1016 TAF ENCN 021100Z 0212/0221 06005KT 9999 SCT020 PROB40 0215/0219 BKN012 BECMG 0219/0221 12012KT 4000 -RASN SCT004 BKN012
Kristiansund
I07-800/252
R25-1300/369
ENKB 021220Z 10004KT 060V140 CAVOK 01/M01 Q1013 RMK WIND 745FT 15004KT TAF ENKB 021100Z 0212/0221 VRB05KT 9999 FEW015 SCT030 TEMPO 0212/0214 1200 SHSN VV006 TEMPO 0212/0214 SCT015CB
Kruunupyy
I19-550/200
R01-1000/250
EFKK 021220Z AUTO 32004KT 280V360 5000 -SN OVC010 M03/M04 Q1007 TAF AMD EFKK 021213Z 0212/0221 33006KT 9999 BKN012 TEMPO 0212/0214 5000 -SN BKN009 TEMPO 0214/0221 FEW012 BKN020
Kuopio
I33-550/200
R15-900/273
EFKU 021220Z VRB02KT 9999 FEW006 BKN036 M04/M06 Q1004 TAF EFKU 021124Z 0212/0312 25004KT 9999 FEW005 BKN030 TEMPO 0212/0218 BKN009 TEMPO 0222/0306 5000 -SN BKN009 PROB30 0222/0303 4000 -FZDZ TEMPO 0306/0312 BKN012
Kuusamo
I12-550/200
R30-750/251
EFKS 021220Z AUTO VRB02KT 9999 -SHSN OVC020 M06/M07 Q1004 TAF EFKS 021139Z 0212/0221 VRB02KT 9999 BKN018 PROB30 0212/0218 6000 -SN
Lappeenranta
I06-550/200
R24-900/264
EFLP 021220Z AUTO 35007KT 320V020 9999 FEW005 M03/M05 Q1003
Leknes
R02-1500/616
R20-1300/339
ENLK 021220Z 15006KT 9999 VCSH FEW015 SCT025 01/M01 Q1009
Mariehamn
I21-550/200
R03-1300/279
EFMA 021220Z AUTO 34009KT 9999 OVC020 M00/M03 Q1010 TAF EFMA 021134Z 0212/0221 33008KT 9999 -SHSN SCT013 BKN035 TEMPO 0212/0215 4000 BKN009
Mehamn
L17-1500/528
R35-1500/935
ENMH 021150Z 18001KT 1000 SHSN VV004 M03/M04 Q1009 TAF ENMH 021100Z 0212/0221 19008KT 9999 FEW030 SCT050 TEMPO 0212/0221 26010KT 1000 SHSN VV004 TEMPO 0212/0221 FEW015CB
Mikkeli
I11-550/204
R29-1400/298
EFMI 021220Z AUTO 32003KT 260V010 9999 FEW006 OVC037 M03/M05 Q1005
Moirana
L14&32-1500/1200
ENRA 021220Z 00000KT CAVOK M17/M20 Q1013 TAF ENRA 021100Z 0212/0221 VRB03KT CAVOK
Namsos
R25-1500/1032
R07-1500/783
ENNM 021220Z 06011KT 6000 -SHSN FEW002 SCT010 BKN017 M04/M06 Q1012 TAF ENNM 021100Z 0212/0221 06008KT 9999 BKN015 TEMPO 0212/0218 0800 SHSN VV004
Notodden
L12-5000/1379
ENNO 021220Z VRB02KT CAVOK M07/M10 Q1017 TAF ENNO 021100Z 0212/0218 VRB03KT CAVOK
Odense
I24-550/200
R06-1500/402
EKOD 021150Z 33004KT 290V360 CAVOK 04/M00 Q1018 TAF EKOD 021154Z 0212/0216 31005KT CAVOK
Orland
R15-750/271
I33-750/206
ENOL 021220Z 32009KT 9999 3000NW -SHSNRA SCT015CB BKN040 02/M02 Q1013 TEMPO 30015G25KT 3000 SHRASNGS TAF ENOL 0212/0312 27010KT 9999 FEW012 SCT045 PROB40 TEMPO 0212/0215 30015G25KT 3000 SHRASN SCT012CB BKN020 BECMG 0215/0218 14008KT BECMG 0218/0221 13018KT TEMPO 0301/0309 13020G30KT
Oslo
I01L-750/200
I01R-550/200
I19LR-550/200
ENGM 021220Z 21003KT CAVOK M05/M09 Q1015 NOSIG TAF ENGM 0212/0312 VRB05KT CAVOK BECMG 0302/0304 4000 -SN FEW004 BKN012 TEMPO 0304/0310 1200 SN BR VV004
Roskilde
I11-550/200
I21-550/200
R03-1500/503
R29-1500/412
EKRK 021220Z AUTO 33011KT 9999 BKN019/// 03/M01 Q1017 TAF EKRK 021106Z 0212/0221 31012KT 9999 BKN018 BECMG 0216/0218 21005KT
Rost
R02-1000/250
R20-1000/250
ENRS 021220Z 19014KT 9999 VCSH FEW006 SCT012 BKN016 01/00 Q1008 TAF AMD ENRS 021209Z 0212/0221 16015KT 9999 SCT020 TEMPO 0212/0221 SCT012CB PROB40 TEMPO 0212/0221 0800 SHSNRA VV006
Rovaniemi
I21-550/200
R03-750/254
EFRO 021220Z 36007KT CAVOK M07/M08 Q1006 TAF EFRO 021139Z 0212/0312 36008KT CAVOK
Rygge
30/12
ENRY 021150Z 00000KT CAVOK M03/M08 Q1016 NOSIG TAF ENRY 0212/0312 VRB05KT CAVOK BECMG 0300/0303 12012KT 4000 -SN FEW004 BKN012 TEMPO 0303/0309 1200 SN BR VV004 BECMG 0309/0312 04008KT 9000 -SN FEW012 BKN020
Ryum
R04-1400/299
R22-1500/493
ENRM 021220Z AUTO 16005KT 130V190 9999 NCD 01/M00 Q1011 TAF AMD ENRM 020840Z 0208/0214 VRB06KT 9999 SCT006 BKN015 TEMPO 0208/0214 30010KT 0500 SHSN VV003
Röros
I31-1500/517
ENRO 021220Z 28004KT 240V340 9999 FEW024 M06/M08 Q1010 TAF ENRO 021100Z 0212/0219 20005KT 9999 SCT020
Savonlinna
I12-550/200
R30-1300/250
EFSA 021220Z AUTO 34005KT 310V010 9999 OVC004 M04/M05 Q1004
Seinajoki
I32-550/200
R14-800/250
EFSI 021220Z AUTO 29007KT 7000 OVC021 M04/M05 Q1007 TAF EFSI 021134Z 0212/0221 31006KT 9999 OVC007 TEMPO 0212/0219 4000 -SN BKN012 TEMPO 0219/0221 BKN013
Skagen
L08-1500/370
L26-1500/377
ENSK 021220Z 05005KT 020V090 9999 FEW022 M03/M05 Q1010 TAF ENSK 021100Z 0212/0221 04008KT 9999 FEW015 TEMPO 0212/0221 FEW015CB
Skrydstrup
I10L-550/200
I28R-550/200
EKSP 021220Z 31006KT 9999 FEW018 06/02 Q1018 NOSIG TAF EKSP 021112Z 0212/0312 30008KT 9999 SCT025 BECMG 0219/0221 18018KT 5000 -RADZ BKN012 TEMPO 0221/0305 2000 RADZ BR BKN003 BECMG 0301/0303 25020G32KT BECMG 0303/0305 30030G42KT BECMG 0305/0307 9999 NSW SCT030 TEMPO 0307/0312 31028KT
Sonderborg
I32-550/200
R14-750/200
EKSB 021220Z 34002KT 9999 FEW012 06/02 Q1018 TAF EKSB 021154Z 0212/0221 30005KT 9999 SCT015
Sorkjosen
14
32
ENSR 021220Z 00000KT 9999 FEW027 M07/M09 Q1011 RMK WIND RWY32 00000KT WIND 1118FT 24009KT TAF ENSR 021100Z 0212/0220 VRB03KT 9999 FEW010 BKN030 PROB40 TEMPO 0212/0215 1200 SHSN VV008 TEMPO 0212/0218 FEW015CB
Sorstokken
L14-1300/257
R32-1300/275
ENSO 021150Z 12012KT 9999 FEW020 02/M01 Q1014 TAF ENSO 020800Z 0209/0217 13008KT 9999 FEW015 SCT180
Stavanger
I11-1200/200
I18-750/200
I36-800/219
R29-1100/325
ENZV 021150Z 14006KT 9999 SCT025 03/01 Q1015 TAF ENZV 0212/0312 13012KT 9999 FEW030 BKN150 TEMPO 0219/0302 16018G32KT 4000 RA BKN008 BECMG 0302/0304 29025G35KT TEMPO 0302/0312 4000 SHRA BKN014CB
Stokka
L20-1500/717
R02-1500/407
ENST 021150Z 04002KT 9999 FEW018 SCT030 M05/M08 Q1010 RMK WIND 300FT 06006KT
Svalbard
I10-1500/450
L28-1600/431
ENSB 021220Z 12014KT 9999 BKN025 M12/M17 Q1019 NOSIG RMK WIND 1400FT 13013KT TAF ENSB 0212/0312 13012KT 9999 BKN025
Svolvaer
L01-1500/901
ENSH 021220Z 10007KT 9999 FEW014 00/M03 Q1010 RMK WIND 0150FT 08009KT TAF ENSH 020500Z 0206/0213 07008KT 9999 FEW010 BKN016 TEMPO 0206/0213 17010KT 2000 SHRASN BKN004 SCT012CB
Tammerfors
I24-550/200
R06-750/251
EFTP 021220Z 32006KT 9999 FEW013 BKN025 M03/M05 Q1006 TAF EFTP 021127Z 0212/0312 31006KT 9999 OVC030 TEMPO 0212/0218 BKN008 PROB40 TEMPO 0218/0306 BKN009
Torp
I18-550/200
I36-600/256
ENTO 021220Z VRB02KT CAVOK 01/M07 Q1016 NOSIG TAF ENTO 0212/0312 VRB05KT CAVOK PROB40 0220/0223 BKN012 BECMG 0223/0301 12012KT 4000 -SN SCT002 OVC008 TEMPO 0301/0309 0800 SN BR VV002 BECMG 0309/0310 03012KT 9000 -SN FEW008 BKN016
Tromsö
I36-900/345
I18-650/294
ENTC 021220Z 23003KT 9999 2500N BKN001 M06/M06 Q1011 RMK WIND 2600FT 34005KT TAF ENTC 0212/0312 22005KT 9999 BKN006 TEMPO 0212/0215 0800 FZFG -SN VV001 BECMG 0213/0216 SCT006 PROB30 TEMPO 0214/0218 4000 -SHSN VV008 PROB40 TEMPO 0220/0306 BKN004
Trondheim
I09-750/210
I27800/237
ENVA 021220Z 09005KT 9999 VCSH SCT012 BKN055 M03/M04 Q1014 RMK WIND 670FT 25006KT TAF ENVA 0212/0312 12008KT 9999 FEW010 SCT050 PROB40 TEMPO 0212/0214 1200 SHSN VV008
Uleåborg
I12-550/200
R30-750/267
EFOU 021220Z AUTO 03008KT 9999 OVC010 M04/M06 Q1005 TAF EFOU 021139Z 0212/0312 36004KT 9999 FEW008 BKN020 TEMPO 0212/0221 6000 -SN BKN008
Utti
I25-550/200
R07-800/255
EFUT 021220Z 35006KT CAVOK M02/M06 Q1004 TAF EFUT 021124Z 0212/0221 36006KT 9999 FEW005 TEMPO 0212/0221 BKN008
Vadso
L07-1400/343
R25-1500/363
ENVD 021220Z 34015KT 9999 FEW012 M06/M09 Q1008 TAF ENVD 021100Z 0212/0221 34010KT 9999 FEW050 BECMG 0215/0217 28010KT TEMPO 0212/0221 FEW020CB
Vamdrup
R01-1500/431
R19-1400/387
EKVD 021150Z 31002KT CAVOK 05/00 Q1018 TAF EKVD 021154Z 0212/0217 VRB03KT 9999 FEW020
Vardö
R15-1500/498
R33-1300/270
ENSS 021220Z 01011KT 9999 FEW028 BKN044 M01/M07 Q1008 RMK WIND 0500FT 02014KT TAF ENSS 021100Z 0212/0221 03012KT 9999 FEW030 SCT050 TEMPO 0212/0221 2000 SHSN VV012 TEMPO 0212/0221 FEW015CB BECMG 0213/0216 29008KT
Vasa
I16-550/200
R34-800/255
EFVA 021220Z AUTO 29007KT 260V320 9999 BKN012 M04/M06 Q1008 TAF EFVA 021134Z 0212/0312 32006KT 9999 BKN012 TEMPO 0212/0306 BKN008 TEMPO 0306/0312 BKN015
Åbo
I26-550/200
R08-900/268
EFTU 021220Z AUTO 35007KT 330V030 CAVOK M02/M06 Q1008 TAF EFTU 021127Z 0212/0312 33007KT CAVOK PROB30 TEMPO 0212/0218 BKN009 PROB30 TEMPO 0218/0224 5000 -SHSN BKN013
Ålborg
I08L-750/200
I26R-550/200
EKYT 021220Z 24004KT CAVOK 03/M00 Q1017 RMK SKC TAF EKYT 021110Z 0212/0312 24006KT 9999 SCT030 BECMG 0213/0216 16008KT BECMG 0221/0223 5000 -RA BKN012 TEMPO 0300/0305 17012G22KT 2000 RASN BR BKN003 FM030500 28020G32KT 9999 BKN020 TEMPO 0306/0311 29028G45KT
Ålesund
I24-800/217
R06-550/225
ENAL 021220Z 13010KT CAVOK 01/M02 Q1013 TAF ENAL 021100Z 0212/0221 14012KT CAVOK
Århus
I10R-550/200
I28L-550/200
EKAH 021220Z AUTO 34005KT 290V010 9999 NCD 04/M01 Q1017 TAF AMD EKAH 021226Z 0212/0312 31008KT 9999 FEW020 BECMG 0212/0214 VRB03KT BECMG 0220/0222 18010KT BKN012 TEMPO 0222/0307 2000 RASN BKN002 BECMG 0305/0307 29020KT TEMPO 0307/0312 30025G40KT BECMG 0307/0309 BKN018

EUROPE

AirportMETARTAF
Babimost
I24-550/212
R06-800/212
EPZG 021200Z 31011KT 270V360 9999 BKN026 04/01 Q1014 TAF EPZG 021130Z 0212/0221 29012KT 9999 BKN030 TEMPO 0212/0215 30016G28KT BKN020CB
Blankensee
I07-550/206
I25-800/237
EDHL 021220Z 33008KT 290V360 9999 FEW029 07/00 Q1019 TAF EDHL 021100Z 0212/0221 30008KT 9999 BKN030 BECMG 0215/0217 VRB03KT
Bydgoszcz
I26-550/212
R08-800/250
EPBY 021200Z 30015KT 9999 -SHRA FEW003 SCT010CB BKN015 02/01 Q1009 TAF EPBY 021130Z 0212/0312 28010KT 9999 BKN025 PROB40 TEMPO 0212/0217 31015G25KT 5000 SHRASN BKN006 BKN012CB BECMG 0303/0305 21008KT BECMG 0306/0309 5000 -SN BKN014 OVC025 TEMPO 0309/0312 18015G25KT 2000 SN BR BKN005 OVC010
Gdansk
I29-550/212
R11-800/250
EPGD 021200Z 32012KT 9999 FEW004 FEW015TCU BKN021 02/00 Q1008 TAF EPGD 021130Z 0212/0312 33012KT 9999 BKN008 BKN014 TEMPO 0212/0217 34015G27KT 4000 SHSNRA BKN004 BKN010CB PROB40 TEMPO 0212/0217 2000 SHSN BKN009CB BECMG 0217/0220 BKN020 BECMG 0221/0224 24005KT BECMG 0306/0309 18012KT BKN010 TEMPO 0309/0312 16015G25KT 2000 SN BKN003 BKN005
Goleniow
I31-550/200
R13-800/250
EPSC 021200Z 31015KT 9999 FEW018 SCT026 BKN031 02/M01 Q1014 TAF EPSC 021130Z 0212/0312 32015KT 9999 BKN020 TEMPO 0212/0214 SCT014TCU BECMG 0217/0220 26005KT BECMG 0303/0305 18010KT BKN012 TEMPO 0303/0309 4000 -SNRA BR BKN005 PROB40 TEMPO 0303/0309 1500 SN BKN003 BECMG 0308/0310 27015KT TEMPO 0309/0312 30020G33KT 4000 SHRA BKN009 BKN015CB
Hamburg
I05-550/207
I15-550/200
I23-550/200
R33-550/250
EDDH 021220Z AUTO 31009KT 250V340 9999 FEW022 SCT027 BKN038 07/02 Q1019 NOSIG TAF EDDH 021100Z 0212/0318 30009KT 9999 SCT020 BECMG 0216/0218 22006KT BECMG 0220/0222 OVC013 TEMPO 0221/0309 4500 -RADZ BKN006 PROB30 TEMPO 0222/0301 RA BKN004 BECMG 0301/0302 26012KT PROB40 TEMPO 0303/0309 26015G25KT PROB30 TEMPO 0307/0309 RA BECMG 0309/0311 29015G25KT SCT020 TEMPO 0310/0315 30020G40KT
Holtenau
I08-550/246
I26-800/217
EDHK 021150Z 35007KT 320V030 9999 FEW017 06/02 Q1018 TAF EDHK 021100Z 0212/0219 30010KT 9999 SCT025 BECMG 0215/0217 22005KT
Kaliningrad UMKK 021200Z 34008MPS 9999 -SHRA BKN016CB 04/01 Q1005 R24/290095 NOSIG RMK QFE753/1004 TAF UMKK 021057Z 0212/0312 35005G10MPS 6000 SCT010 BKN015 TEMPO 0212/0215 3000 -SHRA BKN007 BKN012CB TEMPO 0215/0221 0800 +SHSN BKN003 BKN015CB BECMG 0218/0220 32003G08MPS BECMG 0221/0222 BKN016 BECMG 0300/0302 25002G07MPS BECMG 0304/0305 18003G08MPS TEMPO 0309/0312 17005G10MPS
Katowice
I27-550/206
R09-800/250
EPKT 021200Z 29014KT 9999 FEW018 BKN021 02/M00 Q1009 TAF EPKT 021130Z 0212/0312 28015KT 9999 BKN015 TEMPO 0212/0216 29020G35KT 4000 SHSNRA BKN007 BKN012CB TEMPO 0216/0222 4000 SHSN BKN007 BKN012CB BECMG 0300/0303 22007KT BECMG 0308/0310 3000 SN BKN012 PROB30 TEMPO 0308/0312 FZRA TEMPO 0310/0312 1200 +SN BKN004 BKN008
Kaunas
I08-600/265
I26-550/250
EYKA 021220Z 35003KT 250V060 9999 BKN012 OVC016 01/M00 Q1003 TAF EYKA 021100Z 0212/0312 VRB05KT 5000 BR BKN010 OVC015 TEMPO 0212/0218 33015G25KT 0800 +SHSNRA BKN004 BKN010CB TEMPO 0218/0221 34015G25KT 0800 +SHSN BKN002 BKN010CB BECMG 0221/0222 9000 NSW BKN015
Krakow
I25-550/214
R07-800/250
EPKK 021200Z 26015KT 9999 BKN019 03/01 Q1009 TAF EPKK 021130Z 0212/0312 24015KT 9999 BKN020 TEMPO 0212/0216 27020G35KT 3000 SHRASN BKN007 BKN012CB TEMPO 0216/0224 27015G25KT 4000 SHSN BKN007 BKN012CB BECMG 0303/0306 22005KT BECMG 0310/0312 3000 SN BKN012 PROB30 TEMPO 0310/0312 FZRA
Kuressaare
I17-550/200
R35-1300/254
EEKE 021220Z 35008KT 9999 BKN042 01/M02 Q1006 TAF EEKE 020400Z 0205/0211 02007KT 9999 BKN012 TEMPO 0205/0209 3000 SHSN BKN004 SCT012CB PROB40 TEMPO 0208/0211 36015G25KT
Liepaja
I24-800/238
V06-1500/403
EVLA 021220Z AUTO 01009KT 9999 FEW016/// OVC046/// 02/M01 Q1006 TAF EVLA 021119Z 0212/0312 35010KT 9999 BKN015 TEMPO 0212/0303 3000 -SHRASN BKN009 SCT010CB BECMG 0305/0307 16005KT
Lublin
I25-550/250
R07-1000/250
EPLB 021200Z 24011KT 9999 -RA BKN009 OVC012 03/02 Q1004 TAF EPLB 021130Z 0212/0312 24010KT 9999 BKN010 TEMPO 0212/0214 4000 RA BKN005 PROB40 TEMPO 0212/0214 2500 SHRASN BKN004 BKN008CB BECMG 0213/0216 32012KT TEMPO 0214/0218 31015G25KT 4000 SHRASN BKN006 BKN010CB PROB40 TEMPO 0215/0304 2000 SHSNRA SHSN BKN003 BECMG 0218/0221 BKN018 BECMG 0304/0306 26010KT BECMG 0309/0311 19010KT
Modlin
I08-550/200
R26-800/250
EPMO 021200Z 29010KT 8000 -RA BKN010 03/03 Q1005 TAF EPMO 021130Z 0212/0312 31010KT 9999 -RA BKN010 TEMPO 0212/0218 4000 SNRA BKN005 PROB40 TEMPO 0212/0217 31015G25KT 2000 SHSNRA SHSN BKN004 BKN010CB BECMG 0217/0220 BKN018 PROB40 TEMPO 0217/0301 1500 SHSN BKN004 BKN007CB BECMG 0301/0304 24010KT BECMG 0308/0311 18010KT
Murmansk ULMM 021200Z 27002MPS 9999 SCT016 M05/M05 Q1006 R31/490139 NOSIG RMK QFE747 TAF ULMM 021050Z 0212/0312 31003MPS 6000 -SHSN BKN016CB TEMPO 0212/0218 0800 +SHSN VV004 BECMG 0301/0303 25003G08MPS TEMPO 0303/0312 BKN003 BKN016CB
Olsztyn
I01-550/200
R19-800/250
EPSY 021200Z 33010KT 300V010 9999 BKN007 BKN009 01/00 Q1004 TAF EPSY 021130Z 0212/0221 33010KT 9999 BKN010 TEMPO 0212/0221 2000 SHSNRA BKN004 OVC008CB PROB40 TEMPO 0212/0221 1000 SHSN BKN002 OVC005CB
Palanga
I19-550/230
R01-800/253
EYPA 021220Z 01009KT 9999 FEW040 02/M02 Q1006 TAF EYPA 021100Z 0212/0312 35008KT 6000 BKN015 TEMPO 0212/0215 35015G25KT BKN010 BKN015CB TEMPO 0215/0221 35015G25KT 1500 SHRASN BKN010 BKN015CB TEMPO 0221/0302 34015G25KT
Poznan
I28-550/220
R10-750/209
EPPO 021200Z 32013KT 9999 -SHRA SCT016CB SCT027 03/00 Q1012 TAF EPPO 021130Z 0212/0312 29016KT 9999 SCT025 TEMPO 0212/0215 SHRA BKN020CB BECMG 0215/0218 30005KT BECMG 0304/0306 20010KT 1500 SN OVC004 BECMG 0310/0312 28018G36KT 3000 RA BR BKN009
Prag
I06/I13/I24/I31
LKPR 021200Z 29015G25KT 9999 FEW030 BKN035 04/M02 Q1017 NOSIG TAF LKPR 021100Z 0212/0318 28014KT 9999 SCT030 TEMPO 0212/0218 29016G28KT 7000 SHRA BKN020 PROB30 TEMPO 0212/0218 3000 SHSNRA BKN012 FEW020TCU TEMPO 0218/0303 24008KT TEMPO 0303/0306 4000 SNRA BKN012 PROB30 TEMPO 0303/0306 2000 SN BKN006 BECMG 0306/0308 25018KT 9999 BKN020 TEMPO 0308/0318 27020G32KT RA BKN014 PROB30 TEMPO 0310/0317 29024G42KT 4000 RASN BKN008
Pskov
R01-900/296
R19-750/312
ULOO 021200Z 02002MPS 350V060 9000 -SN SCT006 BKN018 BKN036 00/M01 Q1000 R19/290050 NOSIG RMK OBST OBSC QFE746 TAF ULOO 021058Z 0212/0221 03003MPS 4000 -SN BR SCT005 BKN016 TEMPO 0212/0221 0700 +SHSN BKN004 BKN010CB
Riga
I18-550/200
I36-550/200
EVRA 021220Z 35013KT 9999 -SHSN SCT008 BKN014CB OVC017 01/M00 Q1003 TEMPO 4000 TAF EVRA 021109Z 0212/0312 33012KT 9000 OVC010 TEMPO 0212/0214 4000 -SHSN BR BKN007 BKN015CB BECMG 0214/0216 BKN015 TEMPO 0216/0224 BKN012 TEMPO 0300/0312 2000 SHSN BKN020CB BECMG 0304/0306 26005KT
Rzeszow
I27-550/200
R09-550/250
EPRZ 021200Z 26015KT 9999 -RA BKN005 02/01 Q1006 TAF EPRZ 021130Z 0212/0312 25015KT 9999 BKN020 TEMPO 0212/0218 29020G35KT 3000 SHRASN BKN007 BKN014CB PROB40 TEMPO 0212/0214 1200 +SHSN BKN004 BKN008CB TEMPO 0218/0303 28015G25KT 4000 SHSN BKN007 BKN014CB BECMG 0304/0306 22005KT
Siauliai
I14L-550/210
I32R-550/210
V14R-1600/389
V32L-1600/534
EYSA 021220Z 32011KT 9999 SCT008 BKN011 OVC019 00/M01 Q1003 NOSIG TAF EYSA 021100Z 0212/0221 VRB05KT 8000 BKN005 OVC015 TEMPO 0212/0216 33015KT 5000 SHSNRA BKN010CB FM021600 33015KT BKN015 TEMPO 0216/0221 SCT005 BKN012CB
St Petersburg
I10
I28
ULLI 021200Z 10004MPS 7000 -SN SCT008 BKN023 M01/M03 Q1002 R88/550540 NOSIG TAF ULLI 021053Z 0212/0312 10003MPS 6000 BKN007 OVC013 TEMPO 0212/0218 2100 -SHSN BKN005 BKN016CB TEMPO 0218/0312 1200 SHSN BKN004 BKN016CB BECMG 0310/0312 32005G10MPS
Tallin
I08-550/200
I26-550/200
EETN 021220Z 01009KT 340V040 9999 FEW013 00/M03 Q1005 NOSIG TAF EETN 021130Z 0212/0312 01010KT 9999 SCT012 BKN045 TEMPO 0212/0218 BKN010 PROB40 TEMPO 0218/0223 4000 SN OVC007 TEMPO 0303/0309 32005KT TEMPO 0307/0310 3000 SHSN BKN010 SCT020CB
Tartu/Ulenurme
I26-550/236
R08-800/250
EETU 021220Z 35006KT 2600 -SN BKN005 OVC015 00/M01 Q1001
UMMG UMMG 021200Z 26003MPS 6000 -SHRASN OVC009CB 02/01 Q1003 NOSIG TAF UMMG 021110Z 0212/0221 25004MPS 6000 BKN010 TEMPO 0212/0215 28004G09MPS 3100 -SHRASN BKN005 BKN014CB TEMPO 0215/0216 33005G10MPS
Ventspils
03
21
EVVA 021220Z AUTO 02011KT 9999 FEW044 BKN050 02/M03 Q1007
Vilnius
I01-550/223
I19-600/266
EYVI 021220Z 28006KT 3000 SHSNRA BKN002CB 00/00 Q1001 TEMPO 0800 +SHSNRA TAF EYVI 021100Z 0212/0312 VRB05KT 5000 BR OVC005 TEMPO 0212/0217 32015KT 1500 SHSNRA BKN003 BKN015CB BECMG 0217/0219 33015KT 9000 NSW SCT005 BKN015 TEMPO 0219/0224 5000 SN BKN005 BECMG 0307/0309 VRB05KT
Warszawa
I11-550/211
I33-550/200
R15-800/250
R29-800/250
EPWA 021200Z 30011KT 9999 -RA BKN008 03/02 Q1005 NOSIG TAF EPWA 021130Z 0212/0312 33011KT 9999 -RA BKN010 TEMPO 0212/0219 4000 RASN BKN005 PROB40 TEMPO 0212/0218 33015G25KT 2000 SHSNRA SHSN BKN004 BKN010CB BECMG 0217/0220 BKN018 PROB40 TEMPO 0218/0302 1500 SHSN BKN004 BKN007CB BECMG 0302/0305 24010KT BECMG 0309/0311 18010KT
Wroclaw
I29-550/200
R11-800/250
EPWR 021200Z 32017G27KT 9999 -SHRA FEW007 SCT010CB BKN015 03/02 Q1013 TAF AMD EPWR 021220Z 0212/0312 32015KT 9999 BKN020 TEMPO 0212/0215 32016G28KT SHRA BKN014CB BECMG 0215/0218 33005KT BECMG 0304/0306 2000 SN BR OVC005 BECMG 0306/0309 29018G38KT 4000 RA BR

OTHER

AirportMETARTAF
Rostock
I09-800/200
I27-800/200
ETNL 021220Z 33010KT 9999 FEW019 SCT300 03/M01 Q1017 BLU+BLU+ TAF ETNL 021123Z 0212/0224 31010KT 9999 NSW SCT020 BKN220 BECMG 0216/0218 26005KT 9999 NSW SCT030 BKN150 BECMG 0222/0224 20005KT 6000 -RA BKN012 BY ETGL